createdAt,value
2022-11-16T00:00:19.028Z,10.51
2022-11-16T00:01:09.268Z,10.55
2022-11-16T00:01:56.701Z,10.55
2022-11-16T00:02:43.164Z,10.52
2022-11-16T00:03:31.232Z,10.49
2022-11-16T00:04:17.695Z,10.47
2022-11-16T00:05:04.415Z,10.44
2022-11-16T00:05:56.291Z,10.49
2022-11-16T00:06:42.932Z,10.47
2022-11-16T00:07:29.377Z,10.49
2022-11-16T00:08:15.962Z,10.51
2022-11-16T00:09:21.316Z,10.48
2022-11-16T00:10:08.282Z,10.51
2022-11-16T00:10:54.851Z,10.51
2022-11-16T00:11:42.000Z,10.51
2022-11-16T00:12:28.485Z,10.53
2022-11-16T00:13:14.968Z,10.52
2022-11-16T00:14:01.427Z,10.49
2022-11-16T00:14:48.045Z,10.48
2022-11-16T00:15:34.478Z,10.45
2022-11-16T00:16:20.905Z,10.41
2022-11-16T00:17:07.594Z,10.43
2022-11-16T00:17:54.173Z,10.45
2022-11-16T00:18:42.908Z,10.42
2022-11-16T00:19:30.403Z,10.42
2022-11-16T00:20:17.030Z,10.44
2022-11-16T00:21:05.468Z,10.47
2022-11-16T00:21:52.928Z,10.48
2022-11-16T00:22:39.379Z,10.50
2022-11-16T00:23:25.850Z,10.49
2022-11-16T00:24:14.931Z,10.48
2022-11-16T00:25:01.493Z,10.48
2022-11-16T00:25:48.219Z,10.51
2022-11-16T00:26:34.612Z,10.50
2022-11-16T00:27:21.157Z,10.47
2022-11-16T00:28:08.018Z,10.47
2022-11-16T00:28:55.406Z,10.43
2022-11-16T00:29:41.906Z,10.40
2022-11-16T00:30:28.584Z,10.38
2022-11-16T00:31:15.453Z,10.40
2022-11-16T00:32:02.226Z,10.41
2022-11-16T00:32:48.983Z,10.42
2022-11-16T00:33:36.071Z,10.42
2022-11-16T00:34:23.858Z,10.40
2022-11-16T00:35:10.605Z,10.39
2022-11-16T00:35:57.720Z,10.38
2022-11-16T00:36:44.641Z,10.39
2022-11-16T00:37:31.527Z,10.39
2022-11-16T00:38:18.374Z,10.40
2022-11-16T00:39:05.037Z,10.37
2022-11-16T00:39:52.905Z,10.35
2022-11-16T00:40:39.551Z,10.46
2022-11-16T00:41:26.735Z,10.48
2022-11-16T00:42:13.992Z,10.50
2022-11-16T00:43:00.747Z,10.52
2022-11-16T00:43:47.630Z,10.51
2022-11-16T00:44:34.212Z,10.50
2022-11-16T00:45:20.737Z,10.47
2022-11-16T00:46:07.353Z,10.47
2022-11-16T00:46:53.853Z,10.49
2022-11-16T00:47:40.877Z,10.45
2022-11-16T00:48:27.372Z,10.43
2022-11-16T00:49:14.955Z,10.41
2022-11-16T00:50:01.974Z,10.42
2022-11-16T00:50:48.548Z,10.39
2022-11-16T00:51:36.534Z,10.39
2022-11-16T00:52:23.124Z,10.47
2022-11-16T00:53:13.133Z,10.47
2022-11-16T00:53:59.626Z,10.45
2022-11-16T00:54:46.631Z,10.43
2022-11-16T00:55:34.701Z,10.42
2022-11-16T00:56:23.530Z,10.47
2022-11-16T00:57:09.991Z,10.52
2022-11-16T00:57:56.539Z,10.47
2022-11-16T00:58:44.722Z,10.49
2022-11-16T00:59:31.629Z,10.48
2022-11-16T01:00:20.981Z,10.43
2022-11-16T01:01:09.594Z,10.45
2022-11-16T01:01:56.132Z,10.44
2022-11-16T01:02:42.594Z,10.43
2022-11-16T01:03:29.412Z,10.45
2022-11-16T01:04:15.870Z,10.48
2022-11-16T01:05:03.128Z,10.48
2022-11-16T01:05:49.874Z,10.48
2022-11-16T01:06:36.511Z,10.46
2022-11-16T01:07:23.055Z,10.47
2022-11-16T01:08:09.594Z,10.44
2022-11-16T01:08:57.224Z,10.43
2022-11-16T01:09:43.819Z,10.47
2022-11-16T01:10:31.235Z,10.47
2022-11-16T01:11:38.061Z,10.45
2022-11-16T01:12:24.765Z,10.44
2022-11-16T01:13:12.107Z,10.44
2022-11-16T01:13:58.853Z,10.42
2022-11-16T01:14:47.253Z,10.39
2022-11-16T01:15:33.758Z,10.40
2022-11-16T01:16:22.649Z,10.40
2022-11-16T01:17:09.807Z,10.39
2022-11-16T01:17:57.870Z,10.41
2022-11-16T01:18:48.913Z,10.45
2022-11-16T01:19:37.056Z,10.44
2022-11-16T01:20:26.925Z,10.43
2022-11-16T01:21:13.715Z,10.42
2022-11-16T01:22:01.257Z,10.42
2022-11-16T01:22:48.414Z,10.42
2022-11-16T01:23:34.980Z,10.50
2022-11-16T01:24:21.470Z,10.51
2022-11-16T01:25:10.837Z,10.51
2022-11-16T01:26:01.788Z,10.50
2022-11-16T01:26:50.367Z,10.48
2022-11-16T01:27:38.146Z,10.48
2022-11-16T01:28:29.783Z,10.47
2022-11-16T01:29:16.838Z,10.45
2022-11-16T01:30:12.552Z,10.44
2022-11-16T01:31:04.257Z,10.42
2022-11-16T01:31:54.974Z,10.43
2022-11-16T01:32:41.456Z,10.45
2022-11-16T01:33:29.007Z,10.51
2022-11-16T01:34:16.332Z,10.50
2022-11-16T01:35:04.312Z,10.49
2022-11-16T01:35:53.461Z,10.49
2022-11-16T01:36:41.241Z,10.49
2022-11-16T01:37:30.057Z,10.49
2022-11-16T01:38:17.493Z,10.46
2022-11-16T01:39:05.406Z,10.43
2022-11-16T01:40:01.878Z,10.43
2022-11-16T01:40:49.493Z,10.44
2022-11-16T01:41:36.346Z,10.45
2022-11-16T01:42:29.634Z,10.49
2022-11-16T01:43:23.756Z,10.48
2022-11-16T01:44:14.861Z,10.46
2022-11-16T01:45:23.362Z,10.51
2022-11-16T01:46:12.296Z,10.51
2022-11-16T01:47:09.582Z,10.50
2022-11-16T01:47:58.279Z,10.49
2022-11-16T01:48:58.557Z,10.47
2022-11-16T01:49:57.792Z,10.46
2022-11-16T01:50:50.188Z,10.47
2022-11-16T01:51:39.796Z,10.45
2022-11-16T01:52:31.652Z,10.47
2022-11-16T01:53:20.046Z,10.48
2022-11-16T01:54:13.796Z,10.48
2022-11-16T01:55:12.631Z,10.47
2022-11-16T01:56:19.712Z,10.48
2022-11-16T01:57:30.364Z,10.48
2022-11-16T01:58:26.848Z,10.48
2022-11-16T01:59:20.171Z,10.48
2022-11-16T02:00:11.198Z,10.44
2022-11-16T02:01:10.856Z,10.51
2022-11-16T02:02:04.858Z,10.53
2022-11-16T02:02:54.210Z,10.52
2022-11-16T02:04:02.456Z,10.50
2022-11-16T02:04:53.903Z,10.52
2022-11-16T02:06:30.463Z,10.52
2022-11-16T02:07:59.789Z,10.52
2022-11-16T02:09:40.481Z,10.49
2022-11-16T02:10:53.109Z,10.47
2022-11-16T02:12:00.247Z,10.45
2022-11-16T02:13:22.371Z,10.45
2022-11-16T02:14:24.159Z,10.41
2022-11-16T02:15:29.454Z,10.39
2022-11-16T02:16:48.257Z,10.33
2022-11-16T02:17:57.472Z,10.33
2022-11-16T02:19:01.129Z,10.30
2022-11-16T02:20:14.505Z,10.32
2022-11-16T02:21:10.287Z,10.32
2022-11-16T02:22:13.990Z,10.35
2022-11-16T02:23:32.655Z,10.36
2022-11-16T02:24:42.626Z,10.38
2022-11-16T02:26:04.614Z,10.40
2022-11-16T02:27:35.718Z,10.39
2022-11-16T02:28:24.938Z,10.37
2022-11-16T02:29:20.474Z,10.37
2022-11-16T02:30:07.900Z,10.37
2022-11-16T02:31:05.338Z,10.37
2022-11-16T02:32:04.607Z,10.37
2022-11-16T02:33:04.221Z,10.38
2022-11-16T02:33:56.180Z,10.36
2022-11-16T02:35:01.620Z,10.34
2022-11-16T02:35:55.022Z,10.32
2022-11-16T02:36:46.015Z,10.33
2022-11-16T02:37:40.176Z,10.32
2022-11-16T02:38:33.547Z,10.33
2022-11-16T02:39:26.192Z,10.32
2022-11-16T02:40:18.985Z,10.32
2022-11-16T02:41:16.190Z,10.33
2022-11-16T02:42:08.393Z,10.34
2022-11-16T02:43:04.796Z,10.35
2022-11-16T02:44:03.330Z,10.37
2022-11-16T02:44:54.601Z,10.37
2022-11-16T02:45:48.160Z,10.36
2022-11-16T02:46:42.775Z,10.36
2022-11-16T02:47:35.430Z,10.37
2022-11-16T02:48:33.475Z,10.38
2022-11-16T02:49:23.955Z,10.45
2022-11-16T02:50:17.890Z,10.45
2022-11-16T02:51:06.839Z,10.43
2022-11-16T02:51:55.739Z,10.42
2022-11-16T02:52:42.161Z,10.43
2022-11-16T02:53:37.086Z,10.41
2022-11-16T02:54:24.839Z,10.39
2022-11-16T02:55:14.954Z,10.39
2022-11-16T02:56:04.065Z,10.36
2022-11-16T02:56:57.207Z,10.35
2022-11-16T02:58:00.656Z,10.33
2022-11-16T02:58:51.286Z,10.32
2022-11-16T02:59:45.739Z,10.38
2022-11-16T03:00:48.001Z,10.38
2022-11-16T03:01:47.791Z,10.37
2022-11-16T03:02:45.469Z,10.35
2022-11-16T03:03:52.495Z,10.32
2022-11-16T03:04:48.316Z,10.29
2022-11-16T03:05:48.413Z,10.29
2022-11-16T03:06:41.462Z,10.28
2022-11-16T03:07:41.025Z,10.31
2022-11-16T03:08:35.494Z,10.33
2022-11-16T03:09:32.716Z,10.33
2022-11-16T03:10:40.803Z,10.31
2022-11-16T03:11:49.243Z,10.31
2022-11-16T03:12:40.784Z,10.29
2022-11-16T03:13:33.537Z,10.27
2022-11-16T03:14:26.816Z,10.28
2022-11-16T03:15:14.722Z,10.27
2022-11-16T03:16:27.029Z,10.26
2022-11-16T03:17:37.197Z,10.25
2022-11-16T03:18:28.961Z,10.23
2022-11-16T03:19:28.138Z,10.25
2022-11-16T03:20:20.755Z,10.25
2022-11-16T03:21:18.118Z,10.24
2022-11-16T03:22:17.522Z,10.27
2022-11-16T03:23:10.039Z,10.29
2022-11-16T03:23:57.690Z,10.31
2022-11-16T03:24:44.975Z,10.29
2022-11-16T03:25:45.194Z,10.29
2022-11-16T03:26:46.493Z,10.28
2022-11-16T03:28:02.673Z,10.29
2022-11-16T03:29:27.122Z,10.28
2022-11-16T03:30:26.656Z,10.28
2022-11-16T03:31:26.752Z,10.27
2022-11-16T03:32:20.548Z,10.25
2022-11-16T03:33:58.851Z,10.25
2022-11-16T03:35:08.413Z,10.28
2022-11-16T03:36:03.773Z,10.31
2022-11-16T03:36:55.890Z,10.32
2022-11-16T03:37:47.679Z,10.30
2022-11-16T03:38:38.305Z,10.33
2022-11-16T03:39:37.678Z,10.33
2022-11-16T03:40:30.021Z,10.32
2022-11-16T03:41:20.420Z,10.30
2022-11-16T03:42:14.375Z,10.29
2022-11-16T03:43:07.212Z,10.26
2022-11-16T03:43:56.739Z,10.26
2022-11-16T03:44:47.890Z,10.26
2022-11-16T03:45:36.690Z,10.25
2022-11-16T03:46:24.754Z,10.25
2022-11-16T03:47:12.827Z,10.25
2022-11-16T03:48:00.792Z,10.24
2022-11-16T03:48:47.510Z,10.25
2022-11-16T03:49:47.571Z,10.24
2022-11-16T03:50:36.090Z,10.23
2022-11-16T03:51:22.737Z,10.22
2022-11-16T03:52:10.263Z,10.20
2022-11-16T03:52:56.885Z,10.22
2022-11-16T03:53:43.531Z,10.22
2022-11-16T03:54:31.917Z,10.22
2022-11-16T03:55:20.599Z,10.21
2022-11-16T03:56:07.661Z,10.22
2022-11-16T03:56:54.392Z,10.21
2022-11-16T03:57:40.866Z,10.20
2022-11-16T03:58:27.776Z,10.21
2022-11-16T03:59:16.001Z,10.20
2022-11-16T04:00:06.834Z,10.19
2022-11-16T04:01:00.329Z,10.19
2022-11-16T04:01:48.571Z,10.22
2022-11-16T04:02:35.283Z,10.21
2022-11-16T04:03:22.507Z,10.23
2022-11-16T04:04:29.522Z,10.24
2022-11-16T04:05:35.540Z,10.22
2022-11-16T04:06:40.482Z,10.20
2022-11-16T04:07:45.670Z,10.20
2022-11-16T04:08:52.191Z,10.20
2022-11-16T04:09:57.321Z,10.24
2022-11-16T04:11:03.217Z,10.24
2022-11-16T04:12:10.870Z,10.23
2022-11-16T04:13:17.898Z,10.21
2022-11-16T04:14:24.417Z,10.22
2022-11-16T04:15:29.583Z,10.20
2022-11-16T04:16:36.054Z,10.21
2022-11-16T04:17:45.058Z,10.21
2022-11-16T04:18:51.680Z,10.21
2022-11-16T04:19:58.338Z,10.20
2022-11-16T04:21:06.360Z,10.17
2022-11-16T04:22:19.332Z,10.15
2022-11-16T04:23:31.754Z,10.15
2022-11-16T04:24:26.147Z,10.15
2022-11-16T04:25:20.011Z,10.16
2022-11-16T04:26:10.220Z,10.13
2022-11-16T04:27:24.235Z,10.14
2022-11-16T04:28:13.549Z,10.17
2022-11-16T04:29:03.765Z,10.16
2022-11-16T04:29:51.400Z,10.16
2022-11-16T04:30:58.576Z,10.15
2022-11-16T04:32:04.181Z,10.15
2022-11-16T04:33:09.245Z,10.17
2022-11-16T04:34:14.450Z,10.17
2022-11-16T04:35:24.438Z,10.17
2022-11-16T04:36:29.997Z,10.20
2022-11-16T04:37:37.829Z,10.23
2022-11-16T04:38:25.696Z,10.26
2022-11-16T04:39:13.275Z,10.26
2022-11-16T04:40:00.159Z,10.30
2022-11-16T04:40:48.112Z,10.30
2022-11-16T04:41:53.782Z,10.29
2022-11-16T04:42:40.824Z,10.31
2022-11-16T04:43:28.762Z,10.27
2022-11-16T04:45:21.949Z,10.23
2022-11-16T04:46:30.576Z,10.20
2022-11-16T04:47:18.043Z,10.21
2022-11-16T04:48:06.299Z,10.19
2022-11-16T04:48:54.531Z,10.17
2022-11-16T04:49:41.151Z,10.18
2022-11-16T04:50:27.778Z,10.17
2022-11-16T04:51:14.492Z,10.14
2022-11-16T04:52:01.234Z,10.14
2022-11-16T04:52:50.502Z,10.16
2022-11-16T04:53:39.667Z,10.22
2022-11-16T04:54:34.302Z,10.22
2022-11-16T04:55:21.505Z,10.19
2022-11-16T04:56:09.635Z,10.18
2022-11-16T04:56:57.885Z,10.16
2022-11-16T04:57:44.611Z,10.11
2022-11-16T04:58:33.015Z,10.12
2022-11-16T04:59:19.793Z,10.17
2022-11-16T05:00:08.462Z,10.20
2022-11-16T05:00:57.445Z,10.21
2022-11-16T05:02:04.073Z,10.19
2022-11-16T05:02:51.049Z,10.17
2022-11-16T05:03:37.784Z,10.16
2022-11-16T05:04:24.500Z,10.13
2022-11-16T05:05:11.819Z,10.13
2022-11-16T05:06:01.017Z,10.11
2022-11-16T05:06:48.259Z,10.11
2022-11-16T05:07:35.826Z,10.10
2022-11-16T05:08:29.423Z,10.08
2022-11-16T05:09:16.621Z,10.07
2022-11-16T05:10:05.865Z,10.09
2022-11-16T05:10:53.006Z,10.09
2022-11-16T05:11:41.205Z,10.11
2022-11-16T05:12:28.853Z,10.11
2022-11-16T05:13:18.924Z,10.13
2022-11-16T05:14:06.423Z,10.12
2022-11-16T05:14:55.063Z,10.11
2022-11-16T05:15:46.305Z,10.11
2022-11-16T05:16:33.769Z,10.09
2022-11-16T05:17:20.838Z,10.10
2022-11-16T05:18:07.531Z,10.14
2022-11-16T05:19:12.762Z,10.12
2022-11-16T05:20:18.952Z,10.10
2022-11-16T05:21:10.337Z,10.07
2022-11-16T05:21:58.247Z,10.02
2022-11-16T05:22:44.962Z,9.98
2022-11-16T05:23:50.054Z,9.97
2022-11-16T05:24:39.895Z,9.98
2022-11-16T05:25:26.683Z,9.98
2022-11-16T05:26:13.329Z,9.97
2022-11-16T05:27:01.330Z,9.99
2022-11-16T05:27:48.124Z,9.99
2022-11-16T05:28:35.873Z,10.00
2022-11-16T05:29:22.935Z,9.99
2022-11-16T05:30:11.188Z,9.96
2022-11-16T05:30:58.164Z,9.99
2022-11-16T05:31:47.043Z,9.98
2022-11-16T05:32:35.088Z,10.00
2022-11-16T05:33:21.778Z,10.00
2022-11-16T05:34:09.781Z,9.97
2022-11-16T05:34:56.330Z,9.95
2022-11-16T05:35:44.044Z,9.91
2022-11-16T05:36:31.164Z,9.90
2022-11-16T05:37:20.965Z,9.88
2022-11-16T05:38:07.396Z,9.86
2022-11-16T05:38:58.705Z,9.86
2022-11-16T05:39:48.223Z,9.84
2022-11-16T05:40:35.448Z,9.82
2022-11-16T05:41:22.090Z,9.83
2022-11-16T05:42:09.682Z,9.81
2022-11-16T05:42:58.111Z,9.78
2022-11-16T05:43:46.070Z,9.75
2022-11-16T05:44:39.809Z,9.73
2022-11-16T05:45:27.180Z,9.71
2022-11-16T05:46:13.864Z,9.68
2022-11-16T05:47:01.007Z,9.64
2022-11-16T05:47:48.402Z,9.62
2022-11-16T05:48:35.938Z,9.63
2022-11-16T05:49:24.343Z,9.60
2022-11-16T05:50:11.097Z,9.57
2022-11-16T05:51:00.450Z,9.57
2022-11-16T05:51:52.740Z,9.55
2022-11-16T05:52:41.163Z,9.52
2022-11-16T05:53:30.697Z,9.48
2022-11-16T05:54:21.155Z,9.47
2022-11-16T05:55:08.269Z,9.43
2022-11-16T05:56:01.037Z,9.41
2022-11-16T05:56:49.542Z,9.38
2022-11-16T05:57:37.490Z,9.35
2022-11-16T05:58:24.312Z,9.32
2022-11-16T05:59:19.843Z,9.27
2022-11-16T06:00:09.676Z,9.24
2022-11-16T06:01:01.846Z,9.20
2022-11-16T06:01:48.604Z,9.30
2022-11-16T06:02:35.709Z,9.29
2022-11-16T06:03:22.491Z,9.25
2022-11-16T06:04:09.739Z,9.21
2022-11-16T06:04:56.380Z,9.18
2022-11-16T06:05:43.211Z,9.18
2022-11-16T06:06:32.869Z,9.17
2022-11-16T06:07:20.221Z,9.14
2022-11-16T06:08:06.715Z,9.19
2022-11-16T06:08:53.378Z,9.17
2022-11-16T06:09:44.630Z,9.13
2022-11-16T06:10:39.059Z,9.07
2022-11-16T06:11:29.116Z,9.02
2022-11-16T06:12:19.621Z,8.95
2022-11-16T06:13:07.883Z,8.90
2022-11-16T06:13:54.736Z,8.87
2022-11-16T06:14:41.390Z,8.85
2022-11-16T06:15:27.904Z,8.81
2022-11-16T06:16:14.570Z,8.77
2022-11-16T06:17:01.233Z,8.70
2022-11-16T06:17:48.089Z,8.66
2022-11-16T06:18:41.727Z,8.62
2022-11-16T06:19:32.310Z,8.56
2022-11-16T06:20:19.291Z,8.52
2022-11-16T06:21:07.617Z,8.50
2022-11-16T06:21:54.262Z,8.45
2022-11-16T06:22:41.185Z,8.42
2022-11-16T06:23:27.837Z,8.39
2022-11-16T06:24:14.533Z,8.35
2022-11-16T06:25:02.445Z,8.32
2022-11-16T06:25:55.217Z,8.27
2022-11-16T06:26:43.591Z,8.22
2022-11-16T06:27:30.240Z,8.20
2022-11-16T06:28:16.696Z,8.16
2022-11-16T06:29:03.933Z,8.13
2022-11-16T06:29:50.784Z,8.17
2022-11-16T06:30:40.083Z,8.20
2022-11-16T06:31:27.720Z,8.18
2022-11-16T06:32:14.915Z,8.16
2022-11-16T06:33:01.629Z,8.10
2022-11-16T06:33:48.043Z,8.07
2022-11-16T06:34:39.580Z,8.04
2022-11-16T06:35:26.142Z,8.03
2022-11-16T06:36:13.573Z,8.03
2022-11-16T06:37:00.350Z,7.99
2022-11-16T06:37:47.282Z,7.96
2022-11-16T06:38:34.119Z,7.93
2022-11-16T06:39:21.945Z,7.91
2022-11-16T06:40:09.823Z,7.89
2022-11-16T06:41:01.365Z,7.87
2022-11-16T06:41:49.593Z,7.87
2022-11-16T06:42:36.284Z,7.88
2022-11-16T06:43:24.452Z,7.87
2022-11-16T06:44:11.080Z,7.84
2022-11-16T06:45:02.468Z,7.84
2022-11-16T06:45:57.878Z,7.82
2022-11-16T06:46:44.511Z,7.81
2022-11-16T06:47:30.982Z,7.79
2022-11-16T06:48:19.541Z,7.75
2022-11-16T06:49:06.885Z,7.71
2022-11-16T06:49:54.222Z,7.67
2022-11-16T06:50:42.878Z,7.66
2022-11-16T06:51:29.642Z,7.64
2022-11-16T06:52:16.124Z,7.61
2022-11-16T06:53:02.825Z,7.59
2022-11-16T06:53:49.848Z,7.58
2022-11-16T06:54:36.596Z,7.56
2022-11-16T06:55:23.619Z,7.55
2022-11-16T06:56:14.293Z,7.56
2022-11-16T06:57:06.024Z,7.54
2022-11-16T06:57:52.637Z,7.52
2022-11-16T06:58:42.613Z,7.53
2022-11-16T06:59:30.169Z,7.52
2022-11-16T07:00:17.217Z,7.51
2022-11-16T07:01:07.731Z,7.47
2022-11-16T07:01:55.639Z,7.46
2022-11-16T07:02:42.258Z,7.45
2022-11-16T07:03:32.714Z,7.44
2022-11-16T07:04:20.453Z,7.47
2022-11-16T07:05:13.136Z,7.45
2022-11-16T07:06:06.743Z,7.46
2022-11-16T07:06:53.472Z,7.44
2022-11-16T07:07:40.844Z,7.45
2022-11-16T07:08:28.173Z,7.46
2022-11-16T07:09:14.990Z,7.45
2022-11-16T07:10:03.163Z,7.46
2022-11-16T07:10:51.067Z,7.48
2022-11-16T07:11:37.512Z,7.47
2022-11-16T07:12:24.147Z,7.44
2022-11-16T07:13:10.629Z,7.40
2022-11-16T07:13:59.112Z,7.38
2022-11-16T07:14:45.597Z,7.38
2022-11-16T07:15:33.774Z,7.49
2022-11-16T07:16:21.193Z,7.63
2022-11-16T07:17:18.066Z,7.62
2022-11-16T07:18:08.390Z,7.74
2022-11-16T07:18:59.271Z,7.80
2022-11-16T07:19:48.261Z,7.84
2022-11-16T07:20:37.544Z,7.83
2022-11-16T07:21:24.226Z,7.84
2022-11-16T07:22:11.922Z,7.97
2022-11-16T07:23:02.403Z,7.95
2022-11-16T07:23:48.968Z,7.92
2022-11-16T07:24:39.166Z,7.91
2022-11-16T07:25:25.726Z,7.91
2022-11-16T07:26:13.431Z,7.90
2022-11-16T07:27:07.748Z,7.86
2022-11-16T07:27:58.676Z,7.82
2022-11-16T07:28:48.407Z,7.82
2022-11-16T07:29:38.464Z,7.80
2022-11-16T07:30:45.311Z,7.76
2022-11-16T07:31:39.551Z,7.77
2022-11-16T07:32:46.241Z,7.79
2022-11-16T07:33:45.571Z,7.76
2022-11-16T07:34:59.449Z,7.75
2022-11-16T07:35:47.086Z,7.77
2022-11-16T07:36:33.508Z,7.75
2022-11-16T07:37:19.964Z,7.74
2022-11-16T07:38:07.426Z,7.74
2022-11-16T07:38:54.239Z,7.74
2022-11-16T07:39:40.920Z,7.72
2022-11-16T07:40:29.041Z,7.70
2022-11-16T07:41:18.661Z,7.70
2022-11-16T07:42:17.922Z,7.67
2022-11-16T07:43:37.374Z,7.65
2022-11-16T07:44:30.277Z,7.62
2022-11-16T07:45:26.712Z,7.57
2022-11-16T07:46:45.439Z,7.58
2022-11-16T07:47:28.723Z,7.57
2022-11-16T07:48:15.685Z,7.57
2022-11-16T07:49:40.284Z,7.62
2022-11-16T07:50:37.033Z,7.63
2022-11-16T07:51:24.447Z,7.60
2022-11-16T07:52:27.683Z,7.60
2022-11-16T07:53:19.547Z,7.55
2022-11-16T07:54:06.542Z,7.56
2022-11-16T07:54:53.341Z,7.57
2022-11-16T07:55:43.577Z,7.55
2022-11-16T07:56:30.383Z,7.54
2022-11-16T07:57:16.870Z,7.52
2022-11-16T07:58:03.817Z,7.53
2022-11-16T07:58:50.997Z,7.51
2022-11-16T07:59:37.523Z,7.51
2022-11-16T08:00:26.897Z,7.57
2022-11-16T08:01:22.427Z,7.57
2022-11-16T08:02:10.931Z,7.54
2022-11-16T08:02:59.827Z,7.57
2022-11-16T08:03:47.129Z,7.58
2022-11-16T08:04:33.935Z,7.60
2022-11-16T08:05:20.453Z,7.61
2022-11-16T08:06:20.969Z,7.65
2022-11-16T08:07:07.491Z,7.65
2022-11-16T08:07:59.209Z,7.63
2022-11-16T08:08:46.274Z,7.64
2022-11-16T08:09:34.669Z,7.68
2022-11-16T08:10:23.052Z,7.69
2022-11-16T08:11:12.139Z,7.71
2022-11-16T08:11:58.735Z,7.73
2022-11-16T08:12:45.327Z,7.70
2022-11-16T08:13:37.295Z,7.68
2022-11-16T08:14:24.030Z,7.70
2022-11-16T08:15:14.138Z,7.72
2022-11-16T08:16:02.639Z,7.74
2022-11-16T08:16:49.337Z,7.75
2022-11-16T08:17:44.118Z,7.74
2022-11-16T08:18:32.997Z,7.74
2022-11-16T08:19:19.903Z,7.74
2022-11-16T08:20:16.264Z,7.71
2022-11-16T08:21:05.302Z,7.76
2022-11-16T08:21:52.041Z,7.72
2022-11-16T08:22:39.590Z,7.76
2022-11-16T08:23:28.402Z,7.84
2022-11-16T08:24:15.068Z,7.84
2022-11-16T08:25:04.443Z,7.84
2022-11-16T08:25:51.188Z,7.86
2022-11-16T08:26:37.981Z,7.85
2022-11-16T08:27:30.985Z,7.85
2022-11-16T08:28:17.636Z,7.83
2022-11-16T08:29:04.184Z,7.84
2022-11-16T08:29:56.014Z,7.86
2022-11-16T08:30:42.505Z,7.87
2022-11-16T08:31:29.865Z,7.87
2022-11-16T08:32:30.078Z,7.84
2022-11-16T08:33:17.834Z,7.82
2022-11-16T08:34:04.384Z,7.80
2022-11-16T08:34:52.500Z,7.84
2022-11-16T08:35:39.019Z,7.90
2022-11-16T08:36:25.552Z,7.95
2022-11-16T08:37:13.037Z,7.97
2022-11-16T08:38:03.371Z,7.98
2022-11-16T08:38:52.280Z,7.99
2022-11-16T08:39:40.441Z,8.03
2022-11-16T08:40:28.717Z,8.04
2022-11-16T08:41:18.421Z,8.12
2022-11-16T08:42:05.286Z,8.14
2022-11-16T08:42:56.940Z,8.20
2022-11-16T08:43:44.700Z,8.18
2022-11-16T08:44:31.246Z,8.18
2022-11-16T08:45:21.722Z,8.23
2022-11-16T08:46:10.847Z,8.25
2022-11-16T08:47:00.169Z,8.26
2022-11-16T08:48:04.111Z,8.34
2022-11-16T08:48:57.166Z,8.45
2022-11-16T08:49:49.395Z,8.47
2022-11-16T08:51:02.329Z,8.48
2022-11-16T08:51:43.573Z,8.57
2022-11-16T08:52:30.041Z,8.57
2022-11-16T08:53:18.007Z,8.57
2022-11-16T08:54:06.280Z,8.62
2022-11-16T08:54:55.495Z,8.65
2022-11-16T08:55:42.841Z,8.67
2022-11-16T08:56:30.047Z,8.75
2022-11-16T08:57:16.990Z,8.80
2022-11-16T08:58:06.780Z,8.82
2022-11-16T08:58:58.621Z,8.89
2022-11-16T08:59:46.035Z,8.89
2022-11-16T09:00:33.796Z,8.86
2022-11-16T09:01:24.272Z,8.82
2022-11-16T09:02:10.846Z,8.84
2022-11-16T09:02:57.495Z,8.85
2022-11-16T09:03:45.701Z,8.82
2022-11-16T09:04:36.869Z,8.86
2022-11-16T09:05:23.895Z,8.82
2022-11-16T09:06:11.733Z,8.79
2022-11-16T09:06:58.387Z,8.78
2022-11-16T09:07:45.927Z,8.75
2022-11-16T09:08:33.627Z,8.71
2022-11-16T09:09:20.542Z,8.74
2022-11-16T09:10:07.654Z,8.75
2022-11-16T09:10:54.144Z,8.77
2022-11-16T09:11:40.778Z,8.81
2022-11-16T09:12:27.302Z,8.82
2022-11-16T09:13:13.742Z,8.89
2022-11-16T09:14:00.176Z,8.89
2022-11-16T09:14:46.654Z,8.89
2022-11-16T09:15:33.381Z,8.95
2022-11-16T09:16:21.251Z,8.99
2022-11-16T09:17:07.695Z,9.02
2022-11-16T09:17:55.416Z,9.05
2022-11-16T09:18:45.695Z,9.07
2022-11-16T09:19:32.463Z,9.12
2022-11-16T09:20:19.001Z,9.16
2022-11-16T09:21:05.574Z,9.23
2022-11-16T09:21:52.313Z,9.25
2022-11-16T09:22:38.942Z,9.33
2022-11-16T09:23:26.039Z,9.37
2022-11-16T09:24:12.972Z,9.39
2022-11-16T09:24:59.599Z,9.42
2022-11-16T09:25:48.366Z,9.43
2022-11-16T09:26:34.954Z,9.46
2022-11-16T09:27:21.384Z,9.48
2022-11-16T09:28:08.596Z,9.49
2022-11-16T09:29:00.630Z,9.49
2022-11-16T09:29:47.064Z,9.47
2022-11-16T09:30:33.503Z,9.34
2022-11-16T09:31:23.308Z,9.34
2022-11-16T09:32:10.316Z,9.39
2022-11-16T09:32:58.966Z,9.40
2022-11-16T09:33:47.641Z,9.45
2022-11-16T09:34:35.282Z,9.49
2022-11-16T09:35:21.752Z,9.49
2022-11-16T09:36:09.394Z,9.59
2022-11-16T09:36:55.880Z,9.65
2022-11-16T09:37:42.273Z,9.67
2022-11-16T09:38:40.515Z,9.73
2022-11-16T09:39:35.921Z,9.90
2022-11-16T09:40:34.307Z,9.87
2022-11-16T09:41:39.043Z,9.96
2022-11-16T09:43:00.977Z,10.15
2022-11-16T09:43:56.612Z,10.17
2022-11-16T09:45:12.649Z,10.17
2022-11-16T09:46:33.999Z,10.16
2022-11-16T09:47:25.082Z,10.04
2022-11-16T09:48:16.921Z,9.92
2022-11-16T09:49:17.684Z,9.93
2022-11-16T09:50:08.294Z,9.82
2022-11-16T09:51:07.381Z,9.72
2022-11-16T09:52:19.194Z,9.64
2022-11-16T09:53:26.862Z,9.54
2022-11-16T09:54:20.502Z,9.48
2022-11-16T09:55:33.481Z,9.44
2022-11-16T09:56:23.408Z,9.49
2022-11-16T09:57:26.859Z,9.37
2022-11-16T09:58:27.532Z,9.31
2022-11-16T09:59:36.923Z,9.25
2022-11-16T10:00:23.928Z,9.22
2022-11-16T10:01:33.197Z,9.18
2022-11-16T10:02:32.623Z,9.18
2022-11-16T10:03:19.184Z,9.21
2022-11-16T10:04:17.461Z,9.21
2022-11-16T10:05:38.356Z,9.24
2022-11-16T10:06:55.223Z,9.33
2022-11-16T10:07:43.553Z,9.35
2022-11-16T10:08:49.304Z,9.40
2022-11-16T10:09:36.310Z,9.46
2022-11-16T10:10:39.776Z,9.43
2022-11-16T10:11:45.483Z,9.40
2022-11-16T10:12:45.254Z,9.53
2022-11-16T10:13:52.886Z,9.48
2022-11-16T10:14:48.392Z,9.56
2022-11-16T10:16:00.301Z,9.57
2022-11-16T10:17:04.795Z,9.69
2022-11-16T10:17:51.162Z,9.81
2022-11-16T10:19:07.415Z,9.79
2022-11-16T10:20:38.444Z,9.90
2022-11-16T10:21:47.183Z,9.96
2022-11-16T10:23:14.280Z,9.91
2022-11-16T10:24:30.192Z,10.01
2022-11-16T10:25:22.795Z,10.15
2022-11-16T10:26:18.360Z,10.16
2022-11-16T10:27:24.034Z,10.17
2022-11-16T10:28:22.420Z,10.10
2022-11-16T10:29:20.837Z,10.17
2022-11-16T10:30:07.772Z,10.22
2022-11-16T10:31:22.090Z,10.25
2022-11-16T10:32:17.662Z,10.24
2022-11-16T10:33:18.485Z,10.32
2022-11-16T10:34:09.229Z,10.44
2022-11-16T10:35:05.390Z,10.44
2022-11-16T10:35:57.089Z,10.47
2022-11-16T10:36:45.153Z,10.45
2022-11-16T10:37:37.964Z,10.40
2022-11-16T10:38:30.828Z,10.31
2022-11-16T10:39:20.450Z,10.28
2022-11-16T10:40:36.749Z,10.33
2022-11-16T10:41:37.348Z,10.40
2022-11-16T10:42:36.458Z,10.42
2022-11-16T10:43:31.605Z,10.48
2022-11-16T10:44:38.379Z,10.61
2022-11-16T10:45:48.324Z,10.60
2022-11-16T10:46:45.875Z,10.55
2022-11-16T10:48:16.257Z,10.57
2022-11-16T10:49:22.934Z,10.60
2022-11-16T10:50:39.228Z,10.61
2022-11-16T10:51:25.867Z,10.63
2022-11-16T10:52:12.493Z,10.56
2022-11-16T10:53:00.822Z,10.62
2022-11-16T10:53:47.455Z,10.71
2022-11-16T10:54:38.894Z,10.67
2022-11-16T10:55:30.334Z,10.68
2022-11-16T10:56:17.614Z,10.73
2022-11-16T10:57:13.765Z,10.77
2022-11-16T10:58:01.724Z,10.78
2022-11-16T10:58:50.737Z,10.82
2022-11-16T10:59:47.464Z,10.85
2022-11-16T11:00:40.218Z,10.80
2022-11-16T11:01:41.441Z,10.81
2022-11-16T11:02:31.126Z,10.79
2022-11-16T11:03:31.235Z,10.86
2022-11-16T11:04:30.052Z,10.92
2022-11-16T11:05:21.210Z,10.96
2022-11-16T11:06:11.314Z,10.93
2022-11-16T11:07:21.308Z,10.92
2022-11-16T11:08:11.750Z,10.99
2022-11-16T11:09:35.053Z,11.03
2022-11-16T11:10:41.940Z,11.01
2022-11-16T11:11:48.762Z,11.08
2022-11-16T11:12:38.364Z,11.08
2022-11-16T11:13:27.945Z,11.02
2022-11-16T11:14:16.398Z,11.02
2022-11-16T11:15:11.769Z,11.03
2022-11-16T11:16:18.017Z,11.06
2022-11-16T11:17:12.463Z,11.09
2022-11-16T11:18:12.877Z,11.06
2022-11-16T11:19:18.523Z,11.09
2022-11-16T11:20:08.444Z,11.11
2022-11-16T11:20:58.017Z,11.21
2022-11-16T11:21:45.184Z,11.24
2022-11-16T11:23:02.478Z,11.25
2022-11-16T11:23:52.988Z,11.33
2022-11-16T11:24:48.621Z,11.31
2022-11-16T11:25:39.854Z,11.32
2022-11-16T11:26:36.464Z,11.33
2022-11-16T11:27:31.341Z,11.25
2022-11-16T11:28:31.971Z,11.24
2022-11-16T11:29:32.717Z,11.24